sensor_id;sensor_type;location;lat;lon;timestamp;pressure;altitude;pressure_sealevel;temperature
24586;BMP280;12743;52.262;6.172;2023-04-25T00:01:54;99346.69;;;6.72
24586;BMP280;12743;52.262;6.172;2023-04-25T00:04:21;99344.50;;;6.87
24586;BMP280;12743;52.262;6.172;2023-04-25T00:06:48;99353.25;;;6.78
24586;BMP280;12743;52.262;6.172;2023-04-25T00:09:15;99316.50;;;6.71
24586;BMP280;12743;52.262;6.172;2023-04-25T00:11:41;99346.53;;;6.93
24586;BMP280;12743;52.262;6.172;2023-04-25T00:14:08;99359.63;;;6.81
24586;BMP280;12743;52.262;6.172;2023-04-25T00:16:34;99320.75;;;6.52
24586;BMP280;12743;52.262;6.172;2023-04-25T00:19:02;99353.97;;;6.79
24586;BMP280;12743;52.262;6.172;2023-04-25T00:21:30;99354.63;;;6.88
24586;BMP280;12743;52.262;6.172;2023-04-25T00:23:58;99353.88;;;6.88
24586;BMP280;12743;52.262;6.172;2023-04-25T00:26:24;99362.19;;;6.93
24586;BMP280;12743;52.262;6.172;2023-04-25T00:28:51;99349.59;;;6.95
24586;BMP280;12743;52.262;6.172;2023-04-25T00:31:18;99365.19;;;6.92
24586;BMP280;12743;52.262;6.172;2023-04-25T00:33:45;99330.41;;;6.75
24586;BMP280;12743;52.262;6.172;2023-04-25T00:36:11;99363.84;;;6.98
24586;BMP280;12743;52.262;6.172;2023-04-25T00:38:38;99328.22;;;6.77
24586;BMP280;12743;52.262;6.172;2023-04-25T00:41:08;99328.53;;;6.88
24586;BMP280;12743;52.262;6.172;2023-04-25T00:43:36;99366.56;;;7.01
24586;BMP280;12743;52.262;6.172;2023-04-25T00:46:03;99368.72;;;6.99
24586;BMP280;12743;52.262;6.172;2023-04-25T00:48:30;99336.38;;;6.76
24586;BMP280;12743;52.262;6.172;2023-04-25T00:50:57;99367.66;;;7.00
24586;BMP280;12743;52.262;6.172;2023-04-25T00:53:26;99351.78;;;6.69
24586;BMP280;12743;52.262;6.172;2023-04-25T00:55:53;99373.34;;;6.78
24586;BMP280;12743;52.262;6.172;2023-04-25T00:58:21;99385.06;;;6.48
24586;BMP280;12743;52.262;6.172;2023-04-25T01:00:49;99360.06;;;6.35
24586;BMP280;12743;52.262;6.172;2023-04-25T01:03:17;99398.16;;;6.27
24586;BMP280;12743;52.262;6.172;2023-04-25T01:05:46;99398.44;;;6.58
24586;BMP280;12743;52.262;6.172;2023-04-25T01:08:13;99408.09;;;6.46
24586;BMP280;12743;52.262;6.172;2023-04-25T01:10:40;99364.53;;;6.22
24586;BMP280;12743;52.262;6.172;2023-04-25T01:13:07;99412.97;;;6.59
24586;BMP280;12743;52.262;6.172;2023-04-25T01:15:34;99409.44;;;6.52
24586;BMP280;12743;52.262;6.172;2023-04-25T01:18:04;99392.56;;;6.61
24586;BMP280;12743;52.262;6.172;2023-04-25T01:20:32;99387.78;;;6.39
24586;BMP280;12743;52.262;6.172;2023-04-25T01:23:00;99368.72;;;6.14
24586;BMP280;12743;52.262;6.172;2023-04-25T01:25:29;99406.81;;;6.52
24586;BMP280;12743;52.262;6.172;2023-04-25T01:27:57;99424.69;;;6.41
24586;BMP280;12743;52.262;6.172;2023-04-25T01:30:28;99423.06;;;6.37
24586;BMP280;12743;52.262;6.172;2023-04-25T01:32:56;99428.84;;;6.42
24586;BMP280;12743;52.262;6.172;2023-04-25T01:35:23;99440.47;;;6.45
24586;BMP280;12743;52.262;6.172;2023-04-25T01:37:53;99438.16;;;6.31
24586;BMP280;12743;52.262;6.172;2023-04-25T01:40:21;99450.91;;;6.45
24586;BMP280;12743;52.262;6.172;2023-04-25T01:42:50;99439.69;;;6.32
24586;BMP280;12743;52.262;6.172;2023-04-25T01:45:17;99450.56;;;6.46
24586;BMP280;12743;52.262;6.172;2023-04-25T01:47:44;99458.50;;;6.38
24586;BMP280;12743;52.262;6.172;2023-04-25T01:50:16;99400.63;;;5.99
24586;BMP280;12743;52.262;6.172;2023-04-25T01:52:44;99453.59;;;6.36
24586;BMP280;12743;52.262;6.172;2023-04-25T01:55:11;99465.13;;;6.35
24586;BMP280;12743;52.262;6.172;2023-04-25T01:57:46;99453.81;;;6.31
24586;BMP280;12743;52.262;6.172;2023-04-25T02:00:13;99411.94;;;6.15
24586;BMP280;12743;52.262;6.172;2023-04-25T02:02:40;99437.63;;;6.26
24586;BMP280;12743;52.262;6.172;2023-04-25T02:05:20;99440.06;;;6.10
24586;BMP280;12743;52.262;6.172;2023-04-25T02:07:47;99418.28;;;5.94
24586;BMP280;12743;52.262;6.172;2023-04-25T02:10:14;99401.47;;;5.91
24586;BMP280;12743;52.262;6.172;2023-04-25T02:13:01;99430.50;;;6.14
24586;BMP280;12743;52.262;6.172;2023-04-25T02:15:46;99424.53;;;6.13
24586;BMP280;12743;52.262;6.172;2023-04-25T02:18:14;99425.25;;;6.23
24586;BMP280;12743;52.262;6.172;2023-04-25T02:20:43;99439.34;;;6.34
24586;BMP280;12743;52.262;6.172;2023-04-25T02:23:10;99410.84;;;6.04
24586;BMP280;12743;52.262;6.172;2023-04-25T02:25:37;99432.16;;;6.18
24586;BMP280;12743;52.262;6.172;2023-04-25T02:28:04;99456.25;;;6.15
24586;BMP280;12743;52.262;6.172;2023-04-25T02:30:30;99464.75;;;6.12
24586;BMP280;12743;52.262;6.172;2023-04-25T02:32:57;99434.75;;;5.86
24586;BMP280;12743;52.262;6.172;2023-04-25T02:35:24;99460.91;;;6.10
24586;BMP280;12743;52.262;6.172;2023-04-25T02:37:54;99465.47;;;6.13
24586;BMP280;12743;52.262;6.172;2023-04-25T02:40:20;99470.47;;;6.06
24586;BMP280;12743;52.262;6.172;2023-04-25T02:42:47;99452.00;;;6.11
24586;BMP280;12743;52.262;6.172;2023-04-25T02:45:14;99450.16;;;5.99
24586;BMP280;12743;52.262;6.172;2023-04-25T02:47:40;99462.13;;;6.12
24586;BMP280;12743;52.262;6.172;2023-04-25T02:50:07;99474.13;;;6.05
24586;BMP280;12743;52.262;6.172;2023-04-25T02:52:34;99475.47;;;6.11
24586;BMP280;12743;52.262;6.172;2023-04-25T02:55:09;99467.09;;;6.05
24586;BMP280;12743;52.262;6.172;2023-04-25T02:57:37;99469.06;;;6.08
24586;BMP280;12743;52.262;6.172;2023-04-25T03:00:05;99471.97;;;6.07
24586;BMP280;12743;52.262;6.172;2023-04-25T03:02:33;99474.22;;;5.96
24586;BMP280;12743;52.262;6.172;2023-04-25T03:05:00;99425.81;;;5.75
24586;BMP280;12743;52.262;6.172;2023-04-25T03:07:27;99473.13;;;5.97
24586;BMP280;12743;52.262;6.172;2023-04-25T03:09:54;99497.59;;;6.05
24586;BMP280;12743;52.262;6.172;2023-04-25T03:12:22;99488.63;;;5.94
24586;BMP280;12743;52.262;6.172;2023-04-25T03:14:50;99478.44;;;6.01
24586;BMP280;12743;52.262;6.172;2023-04-25T03:17:16;99482.22;;;6.12
24586;BMP280;12743;52.262;6.172;2023-04-25T03:19:43;99476.44;;;5.86
24586;BMP280;12743;52.262;6.172;2023-04-25T03:22:10;99492.63;;;5.71
24586;BMP280;12743;52.262;6.172;2023-04-25T03:24:36;99486.75;;;5.82
24586;BMP280;12743;52.262;6.172;2023-04-25T03:27:03;99485.84;;;5.78
24586;BMP280;12743;52.262;6.172;2023-04-25T03:29:30;99494.72;;;5.77
24586;BMP280;12743;52.262;6.172;2023-04-25T03:31:59;99496.66;;;5.89
24586;BMP280;12743;52.262;6.172;2023-04-25T03:34:25;99506.44;;;5.92
24586;BMP280;12743;52.262;6.172;2023-04-25T03:36:52;99509.97;;;5.87
24586;BMP280;12743;52.262;6.172;2023-04-25T03:39:19;99512.72;;;5.91
24586;BMP280;12743;52.262;6.172;2023-04-25T03:41:48;99502.47;;;5.86
24586;BMP280;12743;52.262;6.172;2023-04-25T03:44:17;99516.09;;;5.91
24586;BMP280;12743;52.262;6.172;2023-04-25T03:46:43;99532.09;;;5.81
24586;BMP280;12743;52.262;6.172;2023-04-25T03:49:11;99523.81;;;5.58
24586;BMP280;12743;52.262;6.172;2023-04-25T03:51:59;99524.66;;;5.42
24586;BMP280;12743;52.262;6.172;2023-04-25T03:54:29;99515.94;;;5.46
24586;BMP280;12743;52.262;6.172;2023-04-25T03:57:04;99528.63;;;5.48
24586;BMP280;12743;52.262;6.172;2023-04-25T03:59:34;99533.19;;;5.51
24586;BMP280;12743;52.262;6.172;2023-04-25T04:02:02;99534.81;;;5.64
24586;BMP280;12743;52.262;6.172;2023-04-25T04:04:30;99529.94;;;5.63
24586;BMP280;12743;52.262;6.172;2023-04-25T04:06:59;99554.72;;;5.60
24586;BMP280;12743;52.262;6.172;2023-04-25T04:09:29;99557.66;;;5.58
24586;BMP280;12743;52.262;6.172;2023-04-25T04:11:58;99559.72;;;5.53
24586;BMP280;12743;52.262;6.172;2023-04-25T04:14:24;99561.19;;;5.63
24586;BMP280;12743;52.262;6.172;2023-04-25T04:16:51;99564.06;;;5.61
24586;BMP280;12743;52.262;6.172;2023-04-25T04:19:18;99546.91;;;5.69
24586;BMP280;12743;52.262;6.172;2023-04-25T04:22:08;99560.06;;;5.64
24586;BMP280;12743;52.262;6.172;2023-04-25T04:24:35;99564.66;;;5.67
24586;BMP280;12743;52.262;6.172;2023-04-25T04:27:05;99569.06;;;5.75
24586;BMP280;12743;52.262;6.172;2023-04-25T04:29:37;99571.03;;;5.78
24586;BMP280;12743;52.262;6.172;2023-04-25T04:32:10;99581.59;;;5.81
24586;BMP280;12743;52.262;6.172;2023-04-25T04:34:36;99565.16;;;5.89
24586;BMP280;12743;52.262;6.172;2023-04-25T04:37:04;99570.84;;;6.03
24586;BMP280;12743;52.262;6.172;2023-04-25T04:39:31;99573.78;;;5.81
24586;BMP280;12743;52.262;6.172;2023-04-25T04:42:07;99594.31;;;5.83
24586;BMP280;12743;52.262;6.172;2023-04-25T04:44:44;99587.00;;;5.76
24586;BMP280;12743;52.262;6.172;2023-04-25T04:47:22;99558.47;;;5.50
24586;BMP280;12743;52.262;6.172;2023-04-25T04:50:01;99591.06;;;5.86
24586;BMP280;12743;52.262;6.172;2023-04-25T04:53:06;99580.28;;;5.67
24586;BMP280;12743;52.262;6.172;2023-04-25T04:55:47;99621.22;;;5.87
24586;BMP280;12743;52.262;6.172;2023-04-25T04:58:47;99601.16;;;5.58
24586;BMP280;12743;52.262;6.172;2023-04-25T05:01:53;99626.50;;;5.78
24586;BMP280;12743;52.262;6.172;2023-04-25T05:04:32;99643.19;;;5.77
24586;BMP280;12743;52.262;6.172;2023-04-25T05:06:58;99645.97;;;5.72
24586;BMP280;12743;52.262;6.172;2023-04-25T05:09:31;99638.63;;;5.74
24586;BMP280;12743;52.262;6.172;2023-04-25T05:12:08;99644.34;;;5.59
24586;BMP280;12743;52.262;6.172;2023-04-25T05:14:34;99650.50;;;5.54
24586;BMP280;12743;52.262;6.172;2023-04-25T05:17:07;99641.72;;;5.30
24586;BMP280;12743;52.262;6.172;2023-04-25T05:19:40;99666.19;;;5.37
24586;BMP280;12743;52.262;6.172;2023-04-25T05:22:39;99662.53;;;5.30
24586;BMP280;12743;52.262;6.172;2023-04-25T05:25:12;99658.69;;;5.36
24586;BMP280;12743;52.262;6.172;2023-04-25T05:27:53;99664.34;;;5.38
24586;BMP280;12743;52.262;6.172;2023-04-25T05:30:39;99668.91;;;5.49
24586;BMP280;12743;52.262;6.172;2023-04-25T05:33:10;99662.81;;;5.37
24586;BMP280;12743;52.262;6.172;2023-04-25T05:35:37;99635.31;;;5.19
24586;BMP280;12743;52.262;6.172;2023-04-25T05:38:04;99661.72;;;5.46
24586;BMP280;12743;52.262;6.172;2023-04-25T05:41:03;99653.38;;;5.62
24586;BMP280;12743;52.262;6.172;2023-04-25T05:43:42;99662.81;;;5.75
24586;BMP280;12743;52.262;6.172;2023-04-25T05:46:33;99681.22;;;5.78
24586;BMP280;12743;52.262;6.172;2023-04-25T05:49:19;99695.78;;;5.71
24586;BMP280;12743;52.262;6.172;2023-04-25T05:51:57;99700.25;;;5.70
24586;BMP280;12743;52.262;6.172;2023-04-25T05:54:26;99709.25;;;5.81
24586;BMP280;12743;52.262;6.172;2023-04-25T05:56:56;99717.06;;;5.81
24586;BMP280;12743;52.262;6.172;2023-04-25T05:59:23;99717.09;;;5.64
24586;BMP280;12743;52.262;6.172;2023-04-25T06:01:50;99729.47;;;5.84
24586;BMP280;12743;52.262;6.172;2023-04-25T06:04:17;99703.69;;;5.91
24586;BMP280;12743;52.262;6.172;2023-04-25T06:06:44;99761.50;;;5.85
24586;BMP280;12743;52.262;6.172;2023-04-25T06:09:11;99765.00;;;5.89
24586;BMP280;12743;52.262;6.172;2023-04-25T06:11:40;99780.31;;;5.99
24586;BMP280;12743;52.262;6.172;2023-04-25T06:14:06;99776.25;;;6.10
24586;BMP280;12743;52.262;6.172;2023-04-25T06:16:37;99767.69;;;6.01
24586;BMP280;12743;52.262;6.172;2023-04-25T06:19:04;99779.19;;;6.08
24586;BMP280;12743;52.262;6.172;2023-04-25T06:21:30;99795.75;;;6.04
24586;BMP280;12743;52.262;6.172;2023-04-25T06:23:58;99787.34;;;5.98
24586;BMP280;12743;52.262;6.172;2023-04-25T06:26:27;99806.50;;;5.94
24586;BMP280;12743;52.262;6.172;2023-04-25T06:28:53;99804.53;;;5.99
24586;BMP280;12743;52.262;6.172;2023-04-25T06:31:20;99804.31;;;6.04
24586;BMP280;12743;52.262;6.172;2023-04-25T06:33:48;99788.25;;;6.02
24586;BMP280;12743;52.262;6.172;2023-04-25T06:36:15;99772.38;;;6.25
24586;BMP280;12743;52.262;6.172;2023-04-25T06:38:45;99790.88;;;6.61
24586;BMP280;12743;52.262;6.172;2023-04-25T06:41:12;99835.50;;;6.30
24586;BMP280;12743;52.262;6.172;2023-04-25T06:43:38;99871.78;;;6.81
24586;BMP280;12743;52.262;6.172;2023-04-25T06:46:23;99862.06;;;7.32
24586;BMP280;12743;52.262;6.172;2023-04-25T06:48:49;99883.97;;;7.27
24586;BMP280;12743;52.262;6.172;2023-04-25T06:51:18;99863.59;;;7.12
24586;BMP280;12743;52.262;6.172;2023-04-25T06:53:48;99921.06;;;6.83
24586;BMP280;12743;52.262;6.172;2023-04-25T06:56:24;99909.47;;;6.72
24586;BMP280;12743;52.262;6.172;2023-04-25T06:59:04;99857.88;;;6.77
24586;BMP280;12743;52.262;6.172;2023-04-25T07:01:34;99877.31;;;6.89
24586;BMP280;12743;52.262;6.172;2023-04-25T07:04:05;99896.50;;;6.84
24586;BMP280;12743;52.262;6.172;2023-04-25T07:06:35;99895.31;;;7.02
24586;BMP280;12743;52.262;6.172;2023-04-25T07:09:04;99903.69;;;6.87
24586;BMP280;12743;52.262;6.172;2023-04-25T07:11:31;99915.81;;;7.12
24586;BMP280;12743;52.262;6.172;2023-04-25T07:13:58;99960.69;;;7.06
24586;BMP280;12743;52.262;6.172;2023-04-25T07:16:25;99998.34;;;7.34
24586;BMP280;12743;52.262;6.172;2023-04-25T07:18:52;99999.69;;;7.40
24586;BMP280;12743;52.262;6.172;2023-04-25T07:21:18;100008.09;;;7.16
24586;BMP280;12743;52.262;6.172;2023-04-25T07:23:47;100065.22;;;7.26
24586;BMP280;12743;52.262;6.172;2023-04-25T07:26:18;100058.72;;;7.32
24586;BMP280;12743;52.262;6.172;2023-04-25T07:29:03;100081.94;;;7.34
24586;BMP280;12743;52.262;6.172;2023-04-25T07:31:30;100111.72;;;7.71
24586;BMP280;12743;52.262;6.172;2023-04-25T07:33:57;100181.31;;;7.84
24586;BMP280;12743;52.262;6.172;2023-04-25T07:36:27;100157.91;;;8.08
24586;BMP280;12743;52.262;6.172;2023-04-25T07:38:54;100175.78;;;8.47
24586;BMP280;12743;52.262;6.172;2023-04-25T07:41:20;100194.09;;;9.01
24586;BMP280;12743;52.262;6.172;2023-04-25T07:43:47;100199.38;;;9.25
24586;BMP280;12743;52.262;6.172;2023-04-25T07:46:14;100273.72;;;8.67
24586;BMP280;12743;52.262;6.172;2023-04-25T07:48:41;100265.56;;;8.39
24586;BMP280;12743;52.262;6.172;2023-04-25T07:51:08;100250.69;;;8.11
24586;BMP280;12743;52.262;6.172;2023-04-25T07:53:36;100286.34;;;7.77
24586;BMP280;12743;52.262;6.172;2023-04-25T07:56:08;100317.91;;;7.29
24586;BMP280;12743;52.262;6.172;2023-04-25T07:58:38;100276.59;;;6.71
24586;BMP280;12743;52.262;6.172;2023-04-25T08:01:08;100172.63;;;6.31
24586;BMP280;12743;52.262;6.172;2023-04-25T08:03:34;100107.91;;;5.98
24586;BMP280;12743;52.262;6.172;2023-04-25T08:06:05;100048.69;;;5.90
24586;BMP280;12743;52.262;6.172;2023-04-25T08:08:41;99999.34;;;5.94
24586;BMP280;12743;52.262;6.172;2023-04-25T08:11:11;99986.72;;;6.30
24586;BMP280;12743;52.262;6.172;2023-04-25T08:13:38;100030.59;;;6.28
24586;BMP280;12743;52.262;6.172;2023-04-25T08:16:04;100036.75;;;6.32
24586;BMP280;12743;52.262;6.172;2023-04-25T08:18:31;100087.00;;;6.67
24586;BMP280;12743;52.262;6.172;2023-04-25T08:21:00;100087.88;;;6.97
24586;BMP280;12743;52.262;6.172;2023-04-25T08:23:26;100046.22;;;6.54
24586;BMP280;12743;52.262;6.172;2023-04-25T08:26:12;100116.50;;;6.67
24586;BMP280;12743;52.262;6.172;2023-04-25T08:28:41;100127.06;;;6.88
24586;BMP280;12743;52.262;6.172;2023-04-25T08:31:08;100133.31;;;7.13
24586;BMP280;12743;52.262;6.172;2023-04-25T08:33:45;100169.69;;;7.09
24586;BMP280;12743;52.262;6.172;2023-04-25T08:36:19;100174.91;;;7.09
24586;BMP280;12743;52.262;6.172;2023-04-25T08:39:04;100159.97;;;7.73
24586;BMP280;12743;52.262;6.172;2023-04-25T08:41:37;100199.53;;;7.92
24586;BMP280;12743;52.262;6.172;2023-04-25T08:44:06;100209.06;;;8.26
24586;BMP280;12743;52.262;6.172;2023-04-25T08:46:40;100283.03;;;7.97
24586;BMP280;12743;52.262;6.172;2023-04-25T08:49:25;100234.97;;;8.60
24586;BMP280;12743;52.262;6.172;2023-04-25T08:51:52;100266.13;;;8.53
24586;BMP280;12743;52.262;6.172;2023-04-25T08:54:23;100312.50;;;8.44
24586;BMP280;12743;52.262;6.172;2023-04-25T08:57:02;100303.16;;;8.64
24586;BMP280;12743;52.262;6.172;2023-04-25T08:59:31;100360.69;;;8.72
24586;BMP280;12743;52.262;6.172;2023-04-25T09:02:00;100369.00;;;8.74
24586;BMP280;12743;52.262;6.172;2023-04-25T09:04:26;100406.31;;;8.92
24586;BMP280;12743;52.262;6.172;2023-04-25T09:06:54;100331.50;;;9.57
24586;BMP280;12743;52.262;6.172;2023-04-25T09:09:20;100445.81;;;9.28
24586;BMP280;12743;52.262;6.172;2023-04-25T09:11:48;100395.66;;;8.68
24586;BMP280;12743;52.262;6.172;2023-04-25T09:14:22;100380.78;;;7.41
24586;BMP280;12743;52.262;6.172;2023-04-25T09:17:14;100243.72;;;6.53
24586;BMP280;12743;52.262;6.172;2023-04-25T09:19:44;100174.94;;;6.66
24586;BMP280;12743;52.262;6.172;2023-04-25T09:22:23;100205.16;;;6.25
24586;BMP280;12743;52.262;6.172;2023-04-25T09:24:50;100163.94;;;6.61
24586;BMP280;12743;52.262;6.172;2023-04-25T09:27:21;100192.41;;;7.17
24586;BMP280;12743;52.262;6.172;2023-04-25T09:30:16;100228.97;;;7.26
24586;BMP280;12743;52.262;6.172;2023-04-25T09:33:09;100245.69;;;7.51
24586;BMP280;12743;52.262;6.172;2023-04-25T09:35:39;100292.06;;;7.62
24586;BMP280;12743;52.262;6.172;2023-04-25T09:38:14;100298.47;;;7.82
24586;BMP280;12743;52.262;6.172;2023-04-25T09:40:59;100236.13;;;8.01
24586;BMP280;12743;52.262;6.172;2023-04-25T09:43:39;100260.28;;;8.68
24586;BMP280;12743;52.262;6.172;2023-04-25T09:46:09;100302.63;;;8.50
24586;BMP280;12743;52.262;6.172;2023-04-25T09:48:47;100385.38;;;8.25
24586;BMP280;12743;52.262;6.172;2023-04-25T09:51:18;100357.81;;;8.36
24586;BMP280;12743;52.262;6.172;2023-04-25T09:53:46;100402.31;;;8.65
24586;BMP280;12743;52.262;6.172;2023-04-25T09:56:26;100412.66;;;9.12
24586;BMP280;12743;52.262;6.172;2023-04-25T09:58:54;100491.25;;;9.12
24586;BMP280;12743;52.262;6.172;2023-04-25T10:01:21;100502.97;;;9.35
24586;BMP280;12743;52.262;6.172;2023-04-25T10:04:05;100459.03;;;9.73
24586;BMP280;12743;52.262;6.172;2023-04-25T10:06:45;100490.19;;;9.87
24586;BMP280;12743;52.262;6.172;2023-04-25T10:09:14;100486.94;;;9.78
24586;BMP280;12743;52.262;6.172;2023-04-25T10:11:41;100527.25;;;10.51
24586;BMP280;12743;52.262;6.172;2023-04-25T10:14:08;100588.09;;;10.53
24586;BMP280;12743;52.262;6.172;2023-04-25T10:16:36;100649.50;;;10.60
24586;BMP280;12743;52.262;6.172;2023-04-25T10:19:04;100654.69;;;10.69
24586;BMP280;12743;52.262;6.172;2023-04-25T10:21:31;100660.63;;;10.25
24586;BMP280;12743;52.262;6.172;2023-04-25T10:23:59;100689.78;;;9.73
24586;BMP280;12743;52.262;6.172;2023-04-25T10:26:26;100702.47;;;9.25
24586;BMP280;12743;52.262;6.172;2023-04-25T10:31:27;100670.19;;;9.50
24586;BMP280;12743;52.262;6.172;2023-04-25T10:33:55;100734.66;;;9.43
24586;BMP280;12743;52.262;6.172;2023-04-25T10:36:23;100744.25;;;10.05
24586;BMP280;12743;52.262;6.172;2023-04-25T10:38:50;100798.81;;;10.21
24586;BMP280;12743;52.262;6.172;2023-04-25T10:41:21;100815.53;;;10.16
24586;BMP280;12743;52.262;6.172;2023-04-25T10:43:50;100820.91;;;10.20
24586;BMP280;12743;52.262;6.172;2023-04-25T10:46:26;100813.50;;;10.63
24586;BMP280;12743;52.262;6.172;2023-04-25T10:48:55;100827.28;;;10.10
24586;BMP280;12743;52.262;6.172;2023-04-25T10:54:03;100845.78;;;9.76
24586;BMP280;12743;52.262;6.172;2023-04-25T10:56:41;100886.28;;;10.42
24586;BMP280;12743;52.262;6.172;2023-04-25T10:59:11;100838.66;;;10.23
24586;BMP280;12743;52.262;6.172;2023-04-25T11:01:46;100851.50;;;10.16
24586;BMP280;12743;52.262;6.172;2023-04-25T11:04:29;100864.28;;;10.46
24586;BMP280;12743;52.262;6.172;2023-04-25T11:09:40;100872.63;;;11.64
24586;BMP280;12743;52.262;6.172;2023-04-25T11:12:08;100944.13;;;10.83
24586;BMP280;12743;52.262;6.172;2023-04-25T11:14:35;100922.81;;;10.18
24586;BMP280;12743;52.262;6.172;2023-04-25T11:17:02;100930.75;;;10.97
24586;BMP280;12743;52.262;6.172;2023-04-25T11:19:29;100933.19;;;10.81
24586;BMP280;12743;52.262;6.172;2023-04-25T11:22:00;100920.69;;;11.19
24586;BMP280;12743;52.262;6.172;2023-04-25T11:24:29;100923.16;;;11.57
24586;BMP280;12743;52.262;6.172;2023-04-25T11:26:57;100937.75;;;11.34
24586;BMP280;12743;52.262;6.172;2023-04-25T11:29:28;100965.22;;;11.45
24586;BMP280;12743;52.262;6.172;2023-04-25T11:31:55;100972.47;;;11.81
24586;BMP280;12743;52.262;6.172;2023-04-25T11:34:25;100960.75;;;12.75
24586;BMP280;12743;52.262;6.172;2023-04-25T11:36:52;100970.91;;;11.92
24586;BMP280;12743;52.262;6.172;2023-04-25T11:39:20;100945.84;;;10.79
24586;BMP280;12743;52.262;6.172;2023-04-25T11:41:47;100901.59;;;11.31
24586;BMP280;12743;52.262;6.172;2023-04-25T11:44:17;100969.13;;;11.18
24586;BMP280;12743;52.262;6.172;2023-04-25T11:46:44;100982.88;;;11.36
24586;BMP280;12743;52.262;6.172;2023-04-25T11:49:11;100997.97;;;11.68
24586;BMP280;12743;52.262;6.172;2023-04-25T11:51:46;100989.09;;;12.17
24586;BMP280;12743;52.262;6.172;2023-04-25T11:54:13;101011.84;;;12.34
24586;BMP280;12743;52.262;6.172;2023-04-25T11:56:44;100984.50;;;12.27
24586;BMP280;12743;52.262;6.172;2023-04-25T11:59:11;100986.81;;;11.51
24586;BMP280;12743;52.262;6.172;2023-04-25T12:01:41;101005.38;;;12.44
24586;BMP280;12743;52.262;6.172;2023-04-25T12:04:18;101013.66;;;11.77
24586;BMP280;12743;52.262;6.172;2023-04-25T12:06:47;100986.75;;;11.18
24586;BMP280;12743;52.262;6.172;2023-04-25T12:09:17;100994.88;;;10.75
24586;BMP280;12743;52.262;6.172;2023-04-25T12:11:52;100995.78;;;11.49
24586;BMP280;12743;52.262;6.172;2023-04-25T12:14:23;100990.28;;;13.05
24586;BMP280;12743;52.262;6.172;2023-04-25T12:16:50;101034.03;;;12.69
24586;BMP280;12743;52.262;6.172;2023-04-25T12:19:19;101017.34;;;12.65
24586;BMP280;12743;52.262;6.172;2023-04-25T12:21:47;101017.38;;;11.14
24586;BMP280;12743;52.262;6.172;2023-04-25T12:24:22;101034.41;;;10.78
24586;BMP280;12743;52.262;6.172;2023-04-25T12:27:00;101027.47;;;11.12
24586;BMP280;12743;52.262;6.172;2023-04-25T12:29:29;101035.22;;;11.49
24586;BMP280;12743;52.262;6.172;2023-04-25T12:32:03;101052.84;;;11.08
24586;BMP280;12743;52.262;6.172;2023-04-25T12:34:32;101056.50;;;11.98
24586;BMP280;12743;52.262;6.172;2023-04-25T12:36:58;101059.31;;;12.26
24586;BMP280;12743;52.262;6.172;2023-04-25T12:39:25;101039.19;;;11.97
24586;BMP280;12743;52.262;6.172;2023-04-25T12:41:52;101032.66;;;11.82
24586;BMP280;12743;52.262;6.172;2023-04-25T12:44:21;101037.91;;;11.20
24586;BMP280;12743;52.262;6.172;2023-04-25T12:46:48;101015.19;;;11.45
24586;BMP280;12743;52.262;6.172;2023-04-25T12:49:14;101031.59;;;10.92
24586;BMP280;12743;52.262;6.172;2023-04-25T12:51:44;101032.28;;;11.30
24586;BMP280;12743;52.262;6.172;2023-04-25T12:54:11;101044.75;;;11.95
24586;BMP280;12743;52.262;6.172;2023-04-25T12:56:38;101060.22;;;11.14
24586;BMP280;12743;52.262;6.172;2023-04-25T12:59:04;101038.06;;;10.95
24586;BMP280;12743;52.262;6.172;2023-04-25T13:01:31;101042.44;;;11.11
24586;BMP280;12743;52.262;6.172;2023-04-25T13:04:01;101034.69;;;12.66
24586;BMP280;12743;52.262;6.172;2023-04-25T13:06:28;101048.97;;;11.34
24586;BMP280;12743;52.262;6.172;2023-04-25T13:08:56;101028.50;;;10.90
24586;BMP280;12743;52.262;6.172;2023-04-25T13:11:23;101043.34;;;10.40
24586;BMP280;12743;52.262;6.172;2023-04-25T13:13:49;101038.66;;;10.54
24586;BMP280;12743;52.262;6.172;2023-04-25T13:16:16;101055.38;;;10.49
24586;BMP280;12743;52.262;6.172;2023-04-25T13:18:43;101043.94;;;11.21
24586;BMP280;12743;52.262;6.172;2023-04-25T13:21:10;101060.94;;;10.94
24586;BMP280;12743;52.262;6.172;2023-04-25T13:23:40;101064.63;;;10.93
24586;BMP280;12743;52.262;6.172;2023-04-25T13:26:06;101048.59;;;12.31
24586;BMP280;12743;52.262;6.172;2023-04-25T13:28:33;101061.59;;;11.41
24586;BMP280;12743;52.262;6.172;2023-04-25T13:31:00;101058.13;;;10.99
24586;BMP280;12743;52.262;6.172;2023-04-25T13:33:26;101065.16;;;10.78
24586;BMP280;12743;52.262;6.172;2023-04-25T13:35:53;101053.09;;;10.86
24586;BMP280;12743;52.262;6.172;2023-04-25T13:38:24;101024.75;;;10.62
24586;BMP280;12743;52.262;6.172;2023-04-25T13:40:51;101057.72;;;11.68
24586;BMP280;12743;52.262;6.172;2023-04-25T13:43:22;101100.88;;;12.53
24586;BMP280;12743;52.262;6.172;2023-04-25T13:45:49;101091.91;;;12.21
24586;BMP280;12743;52.262;6.172;2023-04-25T13:48:16;101086.44;;;11.93
24586;BMP280;12743;52.262;6.172;2023-04-25T13:50:43;101081.78;;;12.56
24586;BMP280;12743;52.262;6.172;2023-04-25T13:53:09;101099.56;;;13.31
24586;BMP280;12743;52.262;6.172;2023-04-25T13:55:36;101100.78;;;12.98
24586;BMP280;12743;52.262;6.172;2023-04-25T13:58:03;101118.03;;;13.71
24586;BMP280;12743;52.262;6.172;2023-04-25T14:00:37;101117.03;;;13.36
24586;BMP280;12743;52.262;6.172;2023-04-25T14:03:09;101111.03;;;13.23
24586;BMP280;12743;52.262;6.172;2023-04-25T14:05:36;101075.09;;;12.13
24586;BMP280;12743;52.262;6.172;2023-04-25T14:08:09;101128.78;;;11.38
24586;BMP280;12743;52.262;6.172;2023-04-25T14:10:36;101092.28;;;11.08
24586;BMP280;12743;52.262;6.172;2023-04-25T14:13:03;101114.00;;;11.17
24586;BMP280;12743;52.262;6.172;2023-04-25T14:15:33;101126.63;;;11.82
24586;BMP280;12743;52.262;6.172;2023-04-25T14:18:00;101122.31;;;12.63
24586;BMP280;12743;52.262;6.172;2023-04-25T14:20:28;101107.97;;;12.97
24586;BMP280;12743;52.262;6.172;2023-04-25T14:22:54;101123.09;;;13.36
24586;BMP280;12743;52.262;6.172;2023-04-25T14:25:23;101097.44;;;12.40
24586;BMP280;12743;52.262;6.172;2023-04-25T14:27:50;101098.03;;;10.93
24586;BMP280;12743;52.262;6.172;2023-04-25T14:30:21;101113.03;;;11.30
24586;BMP280;12743;52.262;6.172;2023-04-25T14:32:49;101108.50;;;10.55
24586;BMP280;12743;52.262;6.172;2023-04-25T14:35:16;101084.59;;;10.31
24586;BMP280;12743;52.262;6.172;2023-04-25T14:37:43;101091.59;;;10.82